Time;durP1;ratioP1;P1;durP2;ratioP2;P2;SDS_P1;SDS_P2;PMS_P1;PMS_P2;Temp;Humidity;BMP_temperature;BMP_pressure;BME280_temperature;BME280_humidity;BME280_pressure;Samples;Min_cycle;Max_cycle;Signal;HPM_P1;HPM_P2
2021/09/01 00:01:22;;;;;;;3.55;3.05;;;;;;;;;;4936987;29;20420;-85
2021/09/01 00:03:49;;;;;;;3.33;3.03;;;;;;;;;;4937045;29;20428;-85
2021/09/01 00:06:16;;;;;;;3.47;3.10;;;;;;;;;;4934423;28;20416;-86
2021/09/01 00:08:42;;;;;;;3.42;3.13;;;;;;;;;;4937362;28;20481;-85
2021/09/01 00:11:09;;;;;;;3.58;3.00;;;;;;;;;;4945190;28;20471;-86
2021/09/01 00:13:39;;;;;;;3.30;3.00;;;;;;;;;;4940951;28;20418;-86
2021/09/01 00:16:06;;;;;;;3.80;3.17;;;;;;;;;;4942683;28;20896;-85
2021/09/01 00:18:34;;;;;;;3.53;3.10;;;;;;;;;;4938243;28;20406;-85
2021/09/01 00:21:01;;;;;;;3.53;2.93;;;;;;;;;;4942821;28;20555;-85
2021/09/01 00:23:27;;;;;;;3.10;2.80;;;;;;;;;;4942633;28;20432;-85
2021/09/01 00:25:54;;;;;;;3.27;2.97;;;;;;;;;;4946823;28;20454;-85
2021/09/01 00:28:21;;;;;;;3.17;2.87;;;;;;;;;;4942167;28;20907;-85
2021/09/01 00:30:48;;;;;;;3.10;2.83;;;;;;;;;;4943769;28;20411;-85
2021/09/01 00:33:15;;;;;;;3.00;2.70;;;;;;;;;;4942202;28;20427;-85
2021/09/01 00:35:43;;;;;;;3.20;2.83;;;;;;;;;;4941993;28;20851;-85
2021/09/01 00:38:09;;;;;;;3.03;2.70;;;;;;;;;;4940265;28;20424;-85
2021/09/01 00:40:36;;;;;;;4.05;2.92;;;;;;;;;;4942698;28;20417;-85
2021/09/01 00:43:03;;;;;;;3.92;2.67;;;;;;;;;;4938351;28;20904;-84
2021/09/01 00:45:30;;;;;;;3.40;2.55;;;;;;;;;;4940131;28;20410;-83
2021/09/01 00:47:57;;;;;;;2.87;2.47;;;;;;;;;;4933520;28;20913;-84
2021/09/01 00:50:25;;;;;;;3.57;2.40;;;;;;;;;;4939122;28;20416;-85
2021/09/01 00:52:53;;;;;;;3.03;2.43;;;;;;;;;;4947948;28;20397;-85
2021/09/01 00:55:23;;;;;;;3.00;2.50;;;;;;;;;;4962049;28;20404;-86
2021/09/01 00:57:50;;;;;;;2.47;2.28;;;;;;;;;;4943656;28;20451;-84
2021/09/01 01:00:27;;;;;;;2.95;2.75;;;;;;;;;;4936813;28;20418;-85
2021/09/01 01:02:54;;;;;;;2.97;2.58;;;;;;;;;;4936431;28;20445;-86
2021/09/01 01:05:20;;;;;;;3.10;2.60;;;;;;;;;;4939483;28;20419;-84
2021/09/01 01:07:47;;;;;;;2.30;2.10;;;;;;;;;;4939821;28;20423;-86
2021/09/01 01:10:15;;;;;;;2.30;2.10;;;;;;;;;;4937253;29;20416;-84
2021/09/01 01:12:42;;;;;;;2.95;2.30;;;;;;;;;;4932276;29;20414;-85
2021/09/01 01:15:10;;;;;;;4.00;2.50;;;;;;;;;;4930155;29;20406;-84
2021/09/01 01:17:37;;;;;;;3.50;2.65;;;;;;;;;;4930920;28;20416;-85
2021/09/01 01:20:05;;;;;;;3.93;2.50;;;;;;;;;;4930920;29;20406;-86
2021/09/01 01:22:32;;;;;;;3.20;2.70;;;;;;;;;;4936140;28;20884;-84
2021/09/01 01:25:02;;;;;;;2.70;2.42;;;;;;;;;;4936068;29;20431;-85
2021/09/01 01:27:32;;;;;;;3.08;2.67;;;;;;;;;;4934388;28;20444;-84
2021/09/01 01:30:07;;;;;;;3.40;2.53;;;;;;;;;;4937445;29;20747;-85
2021/09/01 01:32:35;;;;;;;4.10;2.70;;;;;;;;;;4938512;29;20416;-86
2021/09/01 01:35:02;;;;;;;3.15;2.53;;;;;;;;;;4935792;29;20507;-86
2021/09/01 01:37:29;;;;;;;3.87;2.30;;;;;;;;;;4912800;29;20500;-85
2021/09/01 01:39:56;;;;;;;3.88;2.45;;;;;;;;;;4926104;29;20495;-84
2021/09/01 01:42:23;;;;;;;3.08;2.45;;;;;;;;;;4929424;29;20415;-85
2021/09/01 01:44:51;;;;;;;2.40;2.20;;;;;;;;;;4931222;28;20424;-86
2021/09/01 01:47:18;;;;;;;2.57;2.30;;;;;;;;;;4937304;28;20436;-86
2021/09/01 01:49:45;;;;;;;2.80;2.33;;;;;;;;;;4941454;28;20412;-85
2021/09/01 01:52:12;;;;;;;2.72;2.47;;;;;;;;;;4936581;28;20407;-85
2021/09/01 01:54:38;;;;;;;4.15;2.30;;;;;;;;;;4935605;28;20416;-85
2021/09/01 01:57:05;;;;;;;3.20;2.60;;;;;;;;;;4935711;28;20895;-86
2021/09/01 01:59:32;;;;;;;3.28;2.22;;;;;;;;;;4936147;28;20412;-86
2021/09/01 02:02:00;;;;;;;3.10;2.40;;;;;;;;;;4940765;29;20408;-86
2021/09/01 02:04:27;;;;;;;2.97;2.30;;;;;;;;;;4943871;28;20424;-85
2021/09/01 02:06:54;;;;;;;3.00;2.50;;;;;;;;;;4942215;28;20411;-86
2021/09/01 02:09:21;;;;;;;3.88;2.20;;;;;;;;;;4943161;28;20411;-85
2021/09/01 02:11:48;;;;;;;2.60;1.92;;;;;;;;;;4941358;29;20781;-86
2021/09/01 02:14:14;;;;;;;3.95;2.10;;;;;;;;;;4943259;29;20966;-84
2021/09/01 02:16:41;;;;;;;2.92;2.25;;;;;;;;;;4942279;29;20427;-86
2021/09/01 02:19:10;;;;;;;2.72;2.15;;;;;;;;;;4943272;29;20408;-84
2021/09/01 02:21:38;;;;;;;3.25;2.25;;;;;;;;;;4942312;28;20412;-86
2021/09/01 02:24:05;;;;;;;2.85;2.03;;;;;;;;;;4943142;29;20918;-85
2021/09/01 02:26:32;;;;;;;2.30;2.10;;;;;;;;;;4941681;28;20747;-86
2021/09/01 02:28:59;;;;;;;3.75;2.10;;;;;;;;;;4942145;29;20447;-86
2021/09/01 02:31:26;;;;;;;2.67;2.10;;;;;;;;;;4942491;28;20431;-86
2021/09/01 02:33:53;;;;;;;2.23;2.00;;;;;;;;;;4942050;29;20861;-85
2021/09/01 02:36:21;;;;;;;2.60;2.00;;;;;;;;;;4942781;28;20431;-84
2021/09/01 02:38:48;;;;;;;3.10;2.10;;;;;;;;;;4942144;29;20412;-86
2021/09/01 02:41:15;;;;;;;2.25;2.00;;;;;;;;;;4941941;28;20412;-85
2021/09/01 02:43:42;;;;;;;2.63;2.13;;;;;;;;;;4941279;28;20643;-86
2021/09/01 02:46:09;;;;;;;3.47;2.30;;;;;;;;;;4942525;28;20427;-84
2021/09/01 02:48:36;;;;;;;2.30;2.10;;;;;;;;;;4904736;29;20485;-86
2021/09/01 02:51:03;;;;;;;3.22;2.20;;;;;;;;;;4900728;29;20838;-86
2021/09/01 02:53:31;;;;;;;3.20;2.53;;;;;;;;;;4904482;29;20411;-85
2021/09/01 02:55:58;;;;;;;3.42;2.70;;;;;;;;;;4905517;29;20430;-85
2021/09/01 02:58:24;;;;;;;4.03;2.42;;;;;;;;;;4904570;29;20412;-86
2021/09/01 03:00:51;;;;;;;3.88;2.40;;;;;;;;;;4903422;29;20426;-86
2021/09/01 03:03:18;;;;;;;2.95;2.50;;;;;;;;;;4904011;29;20423;-86
2021/09/01 03:05:45;;;;;;;3.17;2.70;;;;;;;;;;4903729;29;20419;-86
2021/09/01 03:08:12;;;;;;;4.68;2.72;;;;;;;;;;4904190;29;20415;-84
2021/09/01 03:10:40;;;;;;;3.10;2.58;;;;;;;;;;4902344;29;20416;-86
2021/09/01 03:13:07;;;;;;;3.80;2.70;;;;;;;;;;4904037;29;20430;-86
2021/09/01 03:15:34;;;;;;;3.80;2.63;;;;;;;;;;4904319;29;20935;-86
2021/09/01 03:18:01;;;;;;;3.97;2.67;;;;;;;;;;4903823;29;20423;-85
2021/09/01 03:20:28;;;;;;;4.75;2.80;;;;;;;;;;4904340;29;20423;-86
2021/09/01 03:22:55;;;;;;;3.72;2.58;;;;;;;;;;4902787;29;20427;-86
2021/09/01 03:25:22;;;;;;;4.10;2.80;;;;;;;;;;4903176;29;20459;-85
2021/09/01 03:27:53;;;;;;;3.60;2.60;;;;;;;;;;4902648;29;21204;-86
2021/09/01 03:30:20;;;;;;;3.05;2.50;;;;;;;;;;4904609;29;20420;-85
2021/09/01 03:32:47;;;;;;;3.40;2.35;;;;;;;;;;4902796;29;20415;-85
2021/09/01 03:35:13;;;;;;;3.00;2.55;;;;;;;;;;4904377;29;20422;-86
2021/09/01 03:37:40;;;;;;;4.37;2.83;;;;;;;;;;4903288;29;20773;-86
2021/09/01 03:40:09;;;;;;;3.07;2.30;;;;;;;;;;4902511;29;20419;-86
2021/09/01 03:42:35;;;;;;;3.55;2.47;;;;;;;;;;4902819;29;20575;-87
2021/09/01 03:45:05;;;;;;;3.28;2.30;;;;;;;;;;4899602;29;20440;-85
2021/09/01 03:47:31;;;;;;;3.22;2.45;;;;;;;;;;4925336;29;20721;-85
2021/09/01 03:49:58;;;;;;;3.13;2.45;;;;;;;;;;4940910;28;20412;-86
2021/09/01 03:52:25;;;;;;;2.95;2.65;;;;;;;;;;4941835;29;20418;-86
2021/09/01 03:54:52;;;;;;;3.28;2.70;;;;;;;;;;4939453;28;20420;-86
2021/09/01 03:57:19;;;;;;;4.60;2.83;;;;;;;;;;4944788;28;20905;-85
2021/09/01 03:59:46;;;;;;;3.30;2.53;;;;;;;;;;4940438;28;20428;-86
2021/09/01 04:02:14;;;;;;;2.88;2.42;;;;;;;;;;4940924;29;20412;-86
2021/09/01 04:04:41;;;;;;;6.85;2.72;;;;;;;;;;4934652;28;20425;-86
2021/09/01 04:07:08;;;;;;;4.55;2.50;;;;;;;;;;4937193;29;20410;-86
2021/09/01 04:09:35;;;;;;;4.38;2.65;;;;;;;;;;4920690;28;20521;-85
2021/09/01 04:12:01;;;;;;;4.13;2.58;;;;;;;;;;4922610;29;20980;-85
2021/09/01 04:14:28;;;;;;;3.30;2.80;;;;;;;;;;4922454;29;20417;-86
2021/09/01 04:16:55;;;;;;;4.65;3.20;;;;;;;;;;4938773;29;20777;-85
2021/09/01 04:19:23;;;;;;;3.67;2.90;;;;;;;;;;4940156;29;20416;-86
2021/09/01 04:21:50;;;;;;;5.72;3.80;;;;;;;;;;4938135;28;20817;-86
2021/09/01 04:24:17;;;;;;;9.65;3.28;;;;;;;;;;4932906;29;20437;-85
2021/09/01 04:26:44;;;;;;;3.50;3.00;;;;;;;;;;4942816;28;20386;-85
2021/09/01 04:29:11;;;;;;;7.30;3.00;;;;;;;;;;4947941;29;20413;-86
2021/09/01 04:31:37;;;;;;;11.70;5.40;;;;;;;;;;4935868;29;20425;-85
2021/09/01 04:34:04;;;;;;;13.90;6.22;;;;;;;;;;4937724;29;20412;-86
2021/09/01 04:36:33;;;;;;;6.38;3.92;;;;;;;;;;4939650;28;20523;-86
2021/09/01 04:39:00;;;;;;;5.97;3.38;;;;;;;;;;4925296;28;20744;-86
2021/09/01 04:41:26;;;;;;;5.35;3.10;;;;;;;;;;4922084;28;20483;-86
2021/09/01 04:43:54;;;;;;;5.60;3.20;;;;;;;;;;4927920;29;20425;-86
2021/09/01 04:46:21;;;;;;;4.07;2.88;;;;;;;;;;4926871;29;20429;-86
2021/09/01 04:48:47;;;;;;;3.50;2.72;;;;;;;;;;4924899;29;20409;-85
2021/09/01 04:51:14;;;;;;;5.40;2.40;;;;;;;;;;4925552;29;20510;-86
2021/09/01 04:53:42;;;;;;;4.10;2.50;;;;;;;;;;4927353;29;20406;-85
2021/09/01 04:56:09;;;;;;;9.63;2.67;;;;;;;;;;4943524;28;20419;-86
2021/09/01 04:58:36;;;;;;;4.10;2.53;;;;;;;;;;4939298;29;20435;-86
2021/09/01 05:01:03;;;;;;;3.90;2.67;;;;;;;;;;4932391;29;20429;-86
2021/09/01 05:03:30;;;;;;;3.15;2.40;;;;;;;;;;4945808;29;20424;-85
2021/09/01 05:05:57;;;;;;;3.13;2.58;;;;;;;;;;4945068;29;20432;-84
2021/09/01 05:08:23;;;;;;;3.70;2.50;;;;;;;;;;4940670;29;20416;-85
2021/09/01 05:10:52;;;;;;;5.53;2.85;;;;;;;;;;4941745;29;20502;-86
2021/09/01 05:13:18;;;;;;;5.20;2.70;;;;;;;;;;4943439;29;20407;-86
2021/09/01 05:15:45;;;;;;;3.85;2.60;;;;;;;;;;4943728;29;20415;-86
2021/09/01 05:18:12;;;;;;;3.50;2.43;;;;;;;;;;4944527;29;20412;-86
2021/09/01 05:20:40;;;;;;;4.63;3.00;;;;;;;;;;4943858;29;20419;-86
2021/09/01 05:23:08;;;;;;;3.83;2.43;;;;;;;;;;4932123;29;20429;-84
2021/09/01 05:25:43;;;;;;;3.08;2.30;;;;;;;;;;4941272;29;20440;-84
2021/09/01 05:28:17;;;;;;;4.00;2.50;;;;;;;;;;4931636;29;20446;-85
2021/09/01 05:30:48;;;;;;;3.60;2.55;;;;;;;;;;4938675;29;20455;-85
2021/09/01 05:33:16;;;;;;;4.53;2.60;;;;;;;;;;4942284;29;20514;-85
2021/09/01 05:35:44;;;;;;;3.90;2.72;;;;;;;;;;4944072;29;20412;-85
2021/09/01 05:38:11;;;;;;;3.97;2.75;;;;;;;;;;4944392;29;20416;-84
2021/09/01 05:40:41;;;;;;;2.83;2.50;;;;;;;;;;4942893;28;20801;-87
2021/09/01 05:43:08;;;;;;;5.05;2.63;;;;;;;;;;4941920;29;20769;-86
2021/09/01 05:45:37;;;;;;;3.37;2.50;;;;;;;;;;4930916;29;20441;-86
2021/09/01 05:48:05;;;;;;;4.68;2.97;;;;;;;;;;4931755;28;20418;-86
2021/09/01 05:50:33;;;;;;;4.80;3.03;;;;;;;;;;4931260;28;20408;-86
2021/09/01 05:53:00;;;;;;;5.72;3.00;;;;;;;;;;4929483;29;20419;-80
2021/09/01 05:55:31;;;;;;;3.55;2.50;;;;;;;;;;4932777;28;20925;-77
2021/09/01 05:58:02;;;;;;;4.28;2.50;;;;;;;;;;4944269;28;20420;-85
2021/09/01 06:00:32;;;;;;;4.47;2.50;;;;;;;;;;4944041;28;20417;-84
2021/09/01 06:03:07;;;;;;;3.90;2.60;;;;;;;;;;4944664;28;20497;-85
2021/09/01 06:05:38;;;;;;;3.92;2.30;;;;;;;;;;4944142;28;20436;-84
2021/09/01 06:08:07;;;;;;;3.33;2.28;;;;;;;;;;4935609;28;20825;-84
2021/09/01 06:10:37;;;;;;;4.10;2.53;;;;;;;;;;4937402;28;20424;-84
2021/09/01 06:13:06;;;;;;;3.38;2.40;;;;;;;;;;4948041;28;20405;-85
2021/09/01 06:15:34;;;;;;;6.20;2.60;;;;;;;;;;4939498;28;20493;-85
2021/09/01 06:18:03;;;;;;;5.32;2.70;;;;;;;;;;4946097;28;20860;-83
2021/09/01 06:20:31;;;;;;;2.78;2.00;;;;;;;;;;4940366;28;21272;-83
2021/09/01 06:22:58;;;;;;;2.63;1.88;;;;;;;;;;4937199;28;20424;-83
2021/09/01 06:25:25;;;;;;;3.00;2.00;;;;;;;;;;4942175;29;20431;-84
2021/09/01 06:27:53;;;;;;;3.42;1.90;;;;;;;;;;4943354;28;20419;-83
2021/09/01 06:30:20;;;;;;;2.40;2.00;;;;;;;;;;4936245;28;20418;-84
2021/09/01 06:32:47;;;;;;;2.10;1.77;;;;;;;;;;4932900;29;20425;-83
2021/09/01 06:35:15;;;;;;;3.28;1.92;;;;;;;;;;4935440;28;20416;-83
2021/09/01 06:37:44;;;;;;;3.03;1.57;;;;;;;;;;4935692;29;20414;-83
2021/09/01 06:40:12;;;;;;;2.15;1.88;;;;;;;;;;4928670;29;20422;-83
2021/09/01 06:42:39;;;;;;;2.83;1.85;;;;;;;;;;4937259;29;20412;-84
2021/09/01 06:45:08;;;;;;;2.83;1.90;;;;;;;;;;4945013;28;20939;-83
2021/09/01 06:47:40;;;;;;;2.90;1.90;;;;;;;;;;4939160;28;20418;-83
2021/09/01 06:50:08;;;;;;;3.47;2.22;;;;;;;;;;4945478;28;20422;-84
2021/09/01 06:52:37;;;;;;;8.57;2.30;;;;;;;;;;4942390;28;20432;-83
2021/09/01 06:55:04;;;;;;;3.63;1.90;;;;;;;;;;4945868;28;20813;-84
2021/09/01 06:57:31;;;;;;;3.97;2.03;;;;;;;;;;4936642;29;20416;-83
2021/09/01 06:59:58;;;;;;;4.13;1.90;;;;;;;;;;4947108;28;20423;-83
2021/09/01 07:02:25;;;;;;;2.80;2.00;;;;;;;;;;4944555;28;20836;-83
2021/09/01 07:04:51;;;;;;;2.40;2.20;;;;;;;;;;4941723;28;20434;-84
2021/09/01 07:07:18;;;;;;;2.63;2.07;;;;;;;;;;4946834;28;20422;-84
2021/09/01 07:09:46;;;;;;;4.20;2.10;;;;;;;;;;4941111;28;20990;-84
2021/09/01 07:12:13;;;;;;;2.55;2.10;;;;;;;;;;4937334;28;20473;-84
2021/09/01 07:14:40;;;;;;;5.90;2.42;;;;;;;;;;4935517;28;20424;-83
2021/09/01 07:17:07;;;;;;;6.82;3.00;;;;;;;;;;4933374;28;20490;-84
2021/09/01 07:19:34;;;;;;;5.47;2.50;;;;;;;;;;4937009;28;20418;-83
2021/09/01 07:22:01;;;;;;;3.70;2.70;;;;;;;;;;4934955;28;20408;-83
2021/09/01 07:24:30;;;;;;;5.53;2.67;;;;;;;;;;4941031;28;20471;-84
2021/09/01 07:26:59;;;;;;;4.88;2.53;;;;;;;;;;4946084;28;20433;-83
2021/09/01 07:29:26;;;;;;;5.68;2.50;;;;;;;;;;4936366;29;20425;-84
2021/09/01 07:31:53;;;;;;;3.38;1.85;;;;;;;;;;4944080;28;20503;-84
2021/09/01 07:34:20;;;;;;;3.17;1.50;;;;;;;;;;4939030;28;20456;-83
2021/09/01 07:36:47;;;;;;;3.20;1.20;;;;;;;;;;4935084;28;20418;-83
2021/09/01 07:39:13;;;;;;;2.10;1.33;;;;;;;;;;4930819;28;20407;-84
2021/09/01 07:41:40;;;;;;;3.20;1.20;;;;;;;;;;4930260;29;20417;-84
2021/09/01 07:44:09;;;;;;;1.88;0.85;;;;;;;;;;4936746;28;20432;-84
2021/09/01 07:46:35;;;;;;;1.93;0.97;;;;;;;;;;4934230;28;20446;-83
2021/09/01 07:49:02;;;;;;;2.00;0.70;;;;;;;;;;4950273;28;20746;-84
2021/09/01 07:51:29;;;;;;;1.13;0.60;;;;;;;;;;4940904;28;20414;-83
2021/09/01 07:53:56;;;;;;;1.83;0.60;;;;;;;;;;4940882;28;20419;-83
2021/09/01 07:56:23;;;;;;;0.80;0.60;;;;;;;;;;4941794;28;20838;-83
2021/09/01 07:58:50;;;;;;;0.50;0.40;;;;;;;;;;4941115;28;20762;-83
2021/09/01 08:01:18;;;;;;;0.50;0.40;;;;;;;;;;4937643;29;20936;-85
2021/09/01 08:03:45;;;;;;;1.40;0.50;;;;;;;;;;4937959;28;20429;-83
2021/09/01 08:06:12;;;;;;;0.80;0.40;;;;;;;;;;4936428;28;20923;-85
2021/09/01 08:08:39;;;;;;;0.50;0.50;;;;;;;;;;4938471;28;20404;-84
2021/09/01 08:11:05;;;;;;;0.60;0.60;;;;;;;;;;4933986;29;20417;-84
2021/09/01 08:13:32;;;;;;;0.73;0.60;;;;;;;;;;4942225;28;20429;-85
2021/09/01 08:15:59;;;;;;;0.90;0.70;;;;;;;;;;4941284;28;20412;-84
2021/09/01 08:18:32;;;;;;;2.20;0.90;;;;;;;;;;4941213;28;20461;-84
2021/09/01 08:20:58;;;;;;;1.90;0.60;;;;;;;;;;4940812;28;20765;-84
2021/09/01 08:23:25;;;;;;;2.67;0.85;;;;;;;;;;4940146;29;20416;-84
2021/09/01 08:25:52;;;;;;;1.77;0.80;;;;;;;;;;4938464;29;20424;-85
2021/09/01 08:28:19;;;;;;;3.17;0.90;;;;;;;;;;4945275;28;20407;-84
2021/09/01 08:30:46;;;;;;;2.00;0.77;;;;;;;;;;4947836;28;20789;-84
2021/09/01 08:33:13;;;;;;;1.13;0.90;;;;;;;;;;4949944;28;20416;-84
2021/09/01 08:35:41;;;;;;;1.67;1.10;;;;;;;;;;4945394;28;21298;-84
2021/09/01 08:38:08;;;;;;;2.55;0.90;;;;;;;;;;4941680;28;20420;-84
2021/09/01 08:40:36;;;;;;;4.00;1.20;;;;;;;;;;4944759;28;20413;-79
2021/09/01 08:43:03;;;;;;;2.63;0.82;;;;;;;;;;4938272;28;20416;-83
2021/09/01 08:45:30;;;;;;;2.78;1.00;;;;;;;;;;4932708;28;20437;-85
2021/09/01 08:47:57;;;;;;;2.75;1.02;;;;;;;;;;4935890;28;20425;-85
2021/09/01 08:50:28;;;;;;;3.10;1.15;;;;;;;;;;4931936;29;20409;-85
2021/09/01 08:52:56;;;;;;;6.00;1.47;;;;;;;;;;4938814;29;20439;-85
2021/09/01 08:55:23;;;;;;;3.72;0.95;;;;;;;;;;4939259;28;20408;-85
2021/09/01 08:57:50;;;;;;;4.85;1.40;;;;;;;;;;4937352;29;20418;-85
2021/09/01 09:00:17;;;;;;;4.38;1.38;;;;;;;;;;4931835;29;20413;-85
2021/09/01 09:02:54;;;;;;;4.32;1.20;;;;;;;;;;4938174;28;20475;-85
2021/09/01 09:05:31;;;;;;;3.40;1.15;;;;;;;;;;4948379;28;20889;-84
2021/09/01 09:07:59;;;;;;;5.80;1.40;;;;;;;;;;4939597;28;20424;-86
2021/09/01 09:10:31;;;;;;;6.90;1.60;;;;;;;;;;4939446;28;20682;-85
2021/09/01 09:13:00;;;;;;;4.88;1.48;;;;;;;;;;4943374;28;20516;-84
2021/09/01 09:15:26;;;;;;;3.85;1.42;;;;;;;;;;4947315;28;20471;-84
2021/09/01 09:17:53;;;;;;;2.70;1.10;;;;;;;;;;4938207;28;20916;-84
2021/09/01 09:20:26;;;;;;;3.42;1.45;;;;;;;;;;4943440;28;20408;-84
2021/09/01 09:22:53;;;;;;;3.25;1.40;;;;;;;;;;4938333;28;20430;-86
2021/09/01 09:25:23;;;;;;;1.92;1.20;;;;;;;;;;4944087;28;20420;-85
2021/09/01 09:27:52;;;;;;;2.65;1.10;;;;;;;;;;4940360;28;20424;-84
2021/09/01 09:30:36;;;;;;;4.25;1.30;;;;;;;;;;4941112;28;20969;-85
2021/09/01 09:33:06;;;;;;;2.30;1.15;;;;;;;;;;4946561;28;20777;-85
2021/09/01 09:35:55;;;;;;;2.70;1.20;;;;;;;;;;4941998;28;20484;-85
2021/09/01 09:38:35;;;;;;;3.13;1.30;;;;;;;;;;4943533;28;20420;-85
2021/09/01 09:41:05;;;;;;;4.05;1.42;;;;;;;;;;4948419;28;20905;-85
2021/09/01 09:43:33;;;;;;;6.47;1.40;;;;;;;;;;4945249;28;20425;-84
2021/09/01 09:46:03;;;;;;;2.20;1.40;;;;;;;;;;4947898;28;20435;-85
2021/09/01 09:48:32;;;;;;;2.28;1.38;;;;;;;;;;4939008;28;20417;-86
2021/09/01 09:51:01;;;;;;;3.17;1.30;;;;;;;;;;4947765;28;20781;-85
2021/09/01 09:53:37;;;;;;;2.55;1.40;;;;;;;;;;4942182;28;20901;-85
2021/09/01 09:56:17;;;;;;;1.07;1.00;;;;;;;;;;4943613;28;20408;-85
2021/09/01 09:58:47;;;;;;;1.20;1.10;;;;;;;;;;4941884;28;20408;-86
2021/09/01 10:01:16;;;;;;;1.10;1.00;;;;;;;;;;4938860;28;20402;-86
2021/09/01 10:03:44;;;;;;;1.70;1.00;;;;;;;;;;4941709;28;20481;-86
2021/09/01 10:06:16;;;;;;;1.40;1.00;;;;;;;;;;4943740;28;20941;-85
2021/09/01 10:08:43;;;;;;;2.40;0.93;;;;;;;;;;4939438;28;20436;-84
2021/09/01 10:11:12;;;;;;;1.10;1.00;;;;;;;;;;4939312;28;20433;-86
2021/09/01 10:13:43;;;;;;;1.20;1.10;;;;;;;;;;4941861;28;20424;-86
2021/09/01 10:16:15;;;;;;;2.22;1.20;;;;;;;;;;4940767;28;20439;-86
2021/09/01 10:18:46;;;;;;;2.30;1.10;;;;;;;;;;4936221;28;21231;-84
2021/09/01 10:21:13;;;;;;;1.17;1.00;;;;;;;;;;4935135;28;20415;-84
2021/09/01 10:23:42;;;;;;;3.25;1.40;;;;;;;;;;4933338;28;20409;-86
2021/09/01 10:26:28;;;;;;;1.38;1.00;;;;;;;;;;4937619;28;20424;-85
2021/09/01 10:28:58;;;;;;;1.50;1.10;;;;;;;;;;4935446;28;20412;-85
2021/09/01 10:31:30;;;;;;;1.92;0.98;;;;;;;;;;4936164;28;20416;-84
2021/09/01 10:34:01;;;;;;;3.03;1.10;;;;;;;;;;4941658;28;21265;-85
2021/09/01 10:36:51;;;;;;;1.77;1.30;;;;;;;;;;4939780;28;20486;-86
2021/09/01 10:39:57;;;;;;;;;;;;;;;;;;;;;
2021/09/01 10:42:37;;;;;;;1.30;1.00;;;;;;;;;;4938760;28;20427;-86
2021/09/01 10:45:11;;;;;;;4.55;1.20;;;;;;;;;;4946940;28;20827;-85
2021/09/01 10:48:14;;;;;;;2.25;1.05;;;;;;;;;;4933214;28;20450;-84
2021/09/01 10:50:45;;;;;;;1.92;1.23;;;;;;;;;;4943069;28;20406;-86
2021/09/01 10:53:19;;;;;;;1.70;0.90;;;;;;;;;;4942543;28;20419;-85
2021/09/01 10:55:55;;;;;;;1.20;1.10;;;;;;;;;;4947180;28;20452;-87
2021/09/01 10:58:25;;;;;;;1.90;1.20;;;;;;;;;;4945975;28;20421;-85
2021/09/01 11:01:06;;;;;;;1.38;1.10;;;;;;;;;;4944725;28;20810;-85
2021/09/01 11:03:36;;;;;;;1.27;0.90;;;;;;;;;;4939931;28;20508;-85
2021/09/01 11:06:27;;;;;;;1.23;1.13;;;;;;;;;;4946000;28;20425;-85
2021/09/01 11:09:10;;;;;;;1.90;1.00;;;;;;;;;;4923893;28;20755;-85
2021/09/01 11:11:54;;;;;;;0.90;0.80;;;;;;;;;;4944182;28;20412;-85
2021/09/01 11:14:39;;;;;;;2.40;1.20;;;;;;;;;;4943968;28;20517;-85
2021/09/01 11:17:10;;;;;;;1.00;1.00;;;;;;;;;;4944454;28;20432;-85
2021/09/01 11:19:38;;;;;;;1.10;1.00;;;;;;;;;;4933307;28;20433;-85
2021/09/01 11:22:07;;;;;;;2.90;0.90;;;;;;;;;;4939336;28;20424;-85
2021/09/01 11:24:47;;;;;;;2.50;1.20;;;;;;;;;;4942272;28;20814;-85
2021/09/01 11:27:17;;;;;;;3.80;1.00;;;;;;;;;;4933282;28;20951;-85
2021/09/01 11:29:44;;;;;;;1.10;0.88;;;;;;;;;;4938155;28;20974;-85
2021/09/01 11:32:16;;;;;;;1.55;1.00;;;;;;;;;;4931439;28;20426;-84
2021/09/01 11:34:43;;;;;;;1.80;0.90;;;;;;;;;;4935663;28;20444;-85
2021/09/01 11:37:10;;;;;;;1.38;0.90;;;;;;;;;;4935381;28;21029;-85
2021/09/01 11:39:44;;;;;;;1.83;1.10;;;;;;;;;;4936948;28;20436;-85
2021/09/01 11:42:11;;;;;;;1.52;0.80;;;;;;;;;;4938815;28;20415;-85
2021/09/01 11:44:39;;;;;;;2.00;1.00;;;;;;;;;;4936727;28;20814;-85
2021/09/01 11:47:10;;;;;;;0.98;0.90;;;;;;;;;;4936820;28;20436;-85
2021/09/01 11:49:39;;;;;;;1.73;1.10;;;;;;;;;;4934467;28;20600;-86
2021/09/01 11:52:07;;;;;;;1.27;0.90;;;;;;;;;;4941038;28;20434;-84
2021/09/01 11:54:40;;;;;;;2.03;0.80;;;;;;;;;;4943092;28;20438;-84
2021/09/01 11:57:08;;;;;;;1.77;0.90;;;;;;;;;;4943267;28;20434;-85
2021/09/01 11:59:36;;;;;;;0.85;0.85;;;;;;;;;;4937801;28;20469;-83
2021/09/01 12:02:07;;;;;;;1.10;0.82;;;;;;;;;;4933650;28;20495;-84
2021/09/01 12:04:43;;;;;;;1.05;0.90;;;;;;;;;;4935344;28;20900;-86
2021/09/01 12:07:12;;;;;;;1.20;0.90;;;;;;;;;;4933042;28;20443;-86
2021/09/01 12:09:40;;;;;;;1.67;0.83;;;;;;;;;;4940252;28;20963;-86
2021/09/01 12:12:08;;;;;;;1.83;0.90;;;;;;;;;;4936639;28;20488;-86
2021/09/01 12:14:35;;;;;;;1.45;1.10;;;;;;;;;;4936623;28;20491;-85
2021/09/01 12:17:17;;;;;;;1.40;1.00;;;;;;;;;;4946279;28;20431;-85
2021/09/01 12:19:49;;;;;;;1.27;0.80;;;;;;;;;;4938618;28;20406;-85
2021/09/01 12:22:34;;;;;;;3.63;1.23;;;;;;;;;;4941282;28;20785;-84
2021/09/01 12:25:04;;;;;;;2.20;1.02;;;;;;;;;;4940034;28;20776;-85
2021/09/01 12:27:33;;;;;;;14.63;1.70;;;;;;;;;;4945916;28;21277;-85
2021/09/01 12:30:00;;;;;;;2.07;0.80;;;;;;;;;;4943923;28;20415;-85
2021/09/01 12:32:27;;;;;;;4.78;1.17;;;;;;;;;;4944306;28;20412;-87
2021/09/01 12:34:59;;;;;;;2.58;1.08;;;;;;;;;;4949151;28;20809;-85
2021/09/01 12:37:29;;;;;;;1.30;1.00;;;;;;;;;;4937866;28;20426;-85
2021/09/01 12:39:59;;;;;;;1.10;1.00;;;;;;;;;;4936016;28;20462;-86
2021/09/01 12:42:29;;;;;;;2.30;1.00;;;;;;;;;;4946261;28;20420;-86
2021/09/01 12:44:58;;;;;;;0.90;0.90;;;;;;;;;;4938497;28;20493;-86
2021/09/01 12:47:25;;;;;;;0.88;0.85;;;;;;;;;;4943682;28;20441;-86
2021/09/01 12:49:55;;;;;;;2.67;0.90;;;;;;;;;;4943414;28;21389;-85
2021/09/01 12:52:24;;;;;;;2.13;1.07;;;;;;;;;;4939212;28;20419;-85
2021/09/01 12:54:54;;;;;;;1.33;0.90;;;;;;;;;;4933724;28;20449;-85
2021/09/01 12:57:21;;;;;;;1.52;1.00;;;;;;;;;;4936505;28;20419;-85
2021/09/01 12:59:49;;;;;;;1.02;0.93;;;;;;;;;;4936487;28;20416;-85
2021/09/01 13:02:17;;;;;;;1.27;1.02;;;;;;;;;;4931000;28;20963;-86
2021/09/01 13:04:44;;;;;;;1.80;0.98;;;;;;;;;;4928974;28;20416;-86
2021/09/01 13:07:12;;;;;;;1.23;1.00;;;;;;;;;;4932926;28;20424;-85
2021/09/01 13:09:40;;;;;;;1.43;1.00;;;;;;;;;;4933520;28;20541;-85
2021/09/01 13:12:08;;;;;;;1.30;1.00;;;;;;;;;;4934445;28;20435;-86
2021/09/01 13:14:36;;;;;;;1.33;0.90;;;;;;;;;;4937411;28;20416;-76
2021/09/01 13:17:04;;;;;;;0.70;0.70;;;;;;;;;;4937449;29;20443;-87
2021/09/01 13:19:30;;;;;;;0.80;0.60;;;;;;;;;;4940704;28;20410;-85
2021/09/01 13:21:57;;;;;;;1.30;0.85;;;;;;;;;;4940326;28;20414;-85
2021/09/01 13:24:24;;;;;;;1.20;0.90;;;;;;;;;;4936484;28;20998;-85
2021/09/01 13:26:53;;;;;;;1.27;0.80;;;;;;;;;;4936677;28;20431;-85
2021/09/01 13:29:19;;;;;;;5.70;1.20;;;;;;;;;;4941103;28;20421;-87
2021/09/01 13:31:46;;;;;;;5.68;2.03;;;;;;;;;;4940207;28;20446;-87
2021/09/01 13:34:14;;;;;;;1.00;0.90;;;;;;;;;;4938850;28;20897;-85
2021/09/01 13:36:41;;;;;;;1.15;0.85;;;;;;;;;;4941353;28;20897;-84
2021/09/01 13:39:09;;;;;;;1.00;0.80;;;;;;;;;;4936317;28;20412;-85
2021/09/01 13:41:38;;;;;;;1.77;0.80;;;;;;;;;;4942147;28;20838;-87
2021/09/01 13:44:09;;;;;;;1.05;0.90;;;;;;;;;;4937872;28;20822;-85
2021/09/01 13:46:38;;;;;;;1.10;1.00;;;;;;;;;;4940057;28;20430;-85
2021/09/01 13:49:07;;;;;;;1.88;1.00;;;;;;;;;;4939820;28;20518;-85
2021/09/01 13:51:36;;;;;;;1.80;0.82;;;;;;;;;;4937816;28;20406;-84
2021/09/01 13:54:05;;;;;;;5.15;1.30;;;;;;;;;;4940337;29;20488;-85
2021/09/01 13:56:34;;;;;;;1.85;0.90;;;;;;;;;;4942993;28;20492;-84
2021/09/01 13:59:04;;;;;;;1.40;0.73;;;;;;;;;;4941649;28;20414;-87
2021/09/01 14:01:35;;;;;;;1.10;0.83;;;;;;;;;;4940860;28;20412;-87
2021/09/01 14:04:05;;;;;;;1.80;0.90;;;;;;;;;;4941656;29;20430;-84
2021/09/01 14:06:35;;;;;;;0.70;0.60;;;;;;;;;;4940598;28;20416;-85
2021/09/01 14:09:05;;;;;;;1.07;0.80;;;;;;;;;;4938574;29;20522;-85
2021/09/01 14:11:35;;;;;;;1.15;0.80;;;;;;;;;;4938777;28;20925;-85
2021/09/01 14:14:04;;;;;;;1.00;0.90;;;;;;;;;;4941326;29;20943;-84
2021/09/01 14:16:35;;;;;;;0.90;0.70;;;;;;;;;;4944542;28;20491;-85
2021/09/01 14:19:04;;;;;;;0.98;0.90;;;;;;;;;;4941607;29;20764;-87
2021/09/01 14:21:34;;;;;;;4.50;1.27;;;;;;;;;;4938707;28;20444;-86
2021/09/01 14:24:02;;;;;;;2.80;1.00;;;;;;;;;;4938883;28;20412;-86
2021/09/01 14:26:29;;;;;;;1.60;1.10;;;;;;;;;;4936156;28;20447;-85
2021/09/01 14:28:56;;;;;;;1.90;0.90;;;;;;;;;;4939212;28;20435;-86
2021/09/01 14:31:23;;;;;;;2.60;1.10;;;;;;;;;;4936792;28;20422;-79
2021/09/01 14:33:51;;;;;;;2.15;1.02;;;;;;;;;;4939064;28;20420;-86
2021/09/01 14:36:18;;;;;;;4.63;1.25;;;;;;;;;;4937513;28;20412;-86
2021/09/01 14:38:47;;;;;;;3.30;1.25;;;;;;;;;;4939815;28;20909;-86
2021/09/01 14:41:16;;;;;;;1.37;1.07;;;;;;;;;;4940940;29;20419;-86
2021/09/01 14:43:44;;;;;;;1.35;0.88;;;;;;;;;;4938140;28;20816;-88
2021/09/01 14:46:11;;;;;;;1.67;0.90;;;;;;;;;;4940133;28;20418;-87
2021/09/01 14:48:38;;;;;;;1.20;0.80;;;;;;;;;;4936223;28;20435;-87
2021/09/01 14:51:07;;;;;;;1.90;0.88;;;;;;;;;;4940911;28;20416;-87
2021/09/01 14:53:34;;;;;;;1.77;1.08;;;;;;;;;;4939756;28;20408;-88